Terminal Aerodrome Forecast
Issued by NWS Shreveport, LA

Home | Current Version | Previous Version | Text Only | Print | Product List | Glossary On
Versions: 1 2 3 4 5 6 7 8 9 10 11 12 13
319
FTUS44 KSHV 102343
TAFMLU
TAF
KMLU 102343Z 1100/1124 VRB03KT P6SM SKC
     FM110600 14003KT P6SM BKN060
     FM110900 15005KT P6SM OVC050
     FM111500 17012G18KT P6SM OVC040=

USA.gov is the U.S. government's official web portal to all federal, state and local government web resources and services.